createdAt,value
2022-11-13T00:01:20.386Z,66.20
2022-11-13T00:03:48.261Z,59.80
2022-11-13T00:06:16.432Z,62.23
2022-11-13T00:08:43.994Z,69.33
2022-11-13T00:11:18.719Z,70.40
2022-11-13T00:13:47.441Z,73.50
2022-11-13T00:16:18.074Z,78.43
2022-11-13T00:18:45.677Z,65.23
2022-11-13T00:21:22.579Z,72.07
2022-11-13T00:23:50.555Z,77.70
2022-11-13T00:26:22.286Z,72.73
2022-11-13T00:29:00.520Z,68.23
2022-11-13T00:31:28.882Z,66.30
2022-11-13T00:36:45.146Z,65.13
2022-11-13T00:39:12.569Z,68.20
2022-11-13T00:41:40.759Z,77.93
2022-11-13T00:44:08.589Z,64.53
2022-11-13T00:46:36.327Z,61.07
2022-11-13T00:49:04.536Z,69.63
2022-11-13T00:51:32.280Z,65.97
2022-11-13T00:54:00.389Z,65.10
2022-11-13T00:56:28.287Z,67.03
2022-11-13T00:58:55.498Z,59.50
2022-11-13T01:01:23.325Z,54.97
2022-11-13T01:03:51.225Z,61.17
2022-11-13T01:06:24.346Z,59.20
2022-11-13T01:08:54.517Z,61.23
2022-11-13T01:11:24.684Z,64.77
2022-11-13T01:13:53.521Z,91.63
2022-11-13T01:16:23.298Z,75.83
2022-11-13T01:18:54.665Z,81.57
2022-11-13T01:21:26.011Z,89.67
2022-11-13T01:23:54.898Z,74.63
2022-11-13T01:26:27.080Z,79.33
2022-11-13T01:28:56.283Z,71.37
2022-11-13T01:31:27.361Z,79.13
2022-11-13T01:33:55.386Z,76.27
2022-11-13T01:36:28.791Z,81.83
2022-11-13T01:38:56.277Z,75.63
2022-11-13T01:41:41.628Z,73.23
2022-11-13T01:44:14.347Z,86.13
2022-11-13T01:46:47.606Z,69.13
2022-11-13T01:49:37.739Z,70.63
2022-11-13T01:52:15.692Z,74.07
2022-11-13T01:55:16.464Z,65.00
2022-11-13T01:57:43.791Z,62.50
2022-11-13T02:00:12.375Z,65.23
2022-11-13T02:02:39.994Z,72.30
2022-11-13T02:05:09.696Z,64.13
2022-11-13T02:07:37.010Z,55.00
2022-11-13T02:10:04.661Z,55.70
2022-11-13T02:12:36.783Z,56.87
2022-11-13T02:15:07.756Z,54.57
2022-11-13T02:17:38.413Z,54.50
2022-11-13T02:20:07.995Z,49.53
2022-11-13T02:22:56.245Z,55.60
2022-11-13T02:25:26.107Z,51.10
2022-11-13T02:27:53.438Z,57.27
2022-11-13T02:30:27.271Z,58.20
2022-11-13T02:32:56.953Z,58.00
2022-11-13T02:35:33.451Z,54.37
2022-11-13T02:38:03.346Z,54.17
2022-11-13T02:40:31.590Z,61.37
2022-11-13T02:42:59.180Z,57.40
2022-11-13T02:45:26.450Z,64.80
2022-11-13T02:47:54.104Z,51.57
2022-11-13T02:50:21.458Z,72.57
2022-11-13T02:52:48.807Z,64.87
2022-11-13T02:55:16.177Z,62.57
2022-11-13T02:57:43.454Z,73.33
2022-11-13T03:00:14.022Z,70.93
2022-11-13T03:02:42.326Z,71.70
2022-11-13T03:05:12.405Z,65.47
2022-11-13T03:07:40.697Z,61.67
2022-11-13T03:10:08.906Z,60.03
2022-11-13T03:12:36.697Z,55.53
2022-11-13T03:15:05.340Z,66.00
2022-11-13T03:17:33.109Z,63.83
2022-11-13T03:20:00.504Z,59.23
2022-11-13T03:22:28.614Z,57.90
2022-11-13T03:24:55.902Z,61.43
2022-11-13T03:27:23.296Z,61.40
2022-11-13T03:29:50.636Z,84.07
2022-11-13T03:32:17.981Z,70.90
2022-11-13T03:34:45.574Z,67.80
2022-11-13T03:37:12.974Z,57.07
2022-11-13T03:39:40.234Z,59.23
2022-11-13T03:42:07.688Z,69.70
2022-11-13T03:44:35.388Z,62.07
2022-11-13T03:47:02.768Z,67.77
2022-11-13T03:49:31.027Z,56.33
2022-11-13T03:51:58.483Z,82.47
2022-11-13T03:54:26.703Z,79.93
2022-11-13T03:56:54.364Z,88.80
2022-11-13T03:59:21.704Z,75.73
2022-11-13T04:01:48.963Z,84.23
2022-11-13T04:04:16.658Z,72.40
2022-11-13T04:06:44.083Z,70.33
2022-11-13T04:09:11.619Z,74.67
2022-11-13T04:11:38.972Z,82.33
2022-11-13T04:14:06.237Z,71.70
2022-11-13T04:16:33.469Z,68.10
2022-11-13T04:19:00.865Z,70.03
2022-11-13T04:21:28.403Z,68.93
2022-11-13T04:23:56.309Z,67.27
2022-11-13T04:26:23.565Z,68.43
2022-11-13T04:28:51.103Z,78.83
2022-11-13T04:31:18.381Z,77.57
2022-11-13T04:33:45.659Z,96.63
2022-11-13T04:36:13.147Z,110.50
2022-11-13T04:38:40.524Z,108.50
2022-11-13T04:41:27.190Z,106.93
2022-11-13T04:43:54.455Z,102.73
2022-11-13T04:46:21.836Z,102.07
2022-11-13T04:48:49.278Z,106.73
2022-11-13T04:51:16.758Z,132.40
2022-11-13T04:53:44.070Z,128.63
2022-11-13T04:56:11.857Z,136.37
2022-11-13T04:58:39.154Z,163.10
2022-11-13T05:01:06.805Z,169.63
2022-11-13T05:03:34.224Z,177.10
2022-11-13T05:06:06.440Z,174.33
2022-11-13T05:08:34.779Z,154.57
2022-11-13T05:11:03.066Z,131.87
2022-11-13T05:13:35.452Z,158.23
2022-11-13T05:16:05.891Z,206.90
2022-11-13T05:18:34.369Z,155.90
2022-11-13T05:21:02.019Z,375.87
2022-11-13T05:23:29.534Z,229.73
2022-11-13T05:26:08.455Z,168.83
2022-11-13T05:28:36.490Z,221.87
2022-11-13T05:31:09.312Z,259.20
2022-11-13T05:33:38.199Z,160.60
2022-11-13T05:36:08.971Z,199.83
2022-11-13T05:38:36.584Z,220.73
2022-11-13T05:41:06.885Z,206.57
2022-11-13T05:43:35.999Z,194.67
2022-11-13T05:46:06.967Z,324.93
2022-11-13T05:48:35.621Z,232.27
2022-11-13T05:51:06.859Z,126.40
2022-11-13T05:53:35.752Z,141.17
2022-11-13T05:56:05.496Z,137.83
2022-11-13T05:58:33.982Z,163.33
2022-11-13T06:01:10.546Z,109.63
2022-11-13T06:03:39.194Z,117.97
2022-11-13T06:06:08.521Z,256.07
2022-11-13T06:08:36.521Z,168.97
2022-11-13T06:11:09.781Z,116.70
2022-11-13T06:13:37.644Z,140.63
2022-11-13T06:16:16.682Z,212.27
2022-11-13T06:18:45.935Z,108.87
2022-11-13T06:21:18.965Z,95.97
2022-11-13T06:23:46.412Z,90.43
2022-11-13T06:26:16.943Z,83.30
2022-11-13T06:28:45.659Z,90.60
2022-11-13T06:31:18.442Z,80.47
2022-11-13T06:33:47.835Z,81.50
2022-11-13T06:36:18.024Z,95.83
2022-11-13T06:38:45.850Z,87.03
2022-11-13T06:41:15.399Z,84.57
2022-11-13T06:43:43.390Z,78.53
2022-11-13T06:46:16.264Z,72.33
2022-11-13T06:48:43.791Z,67.63
2022-11-13T06:51:16.266Z,72.50
2022-11-13T06:53:44.021Z,78.37
2022-11-13T06:56:12.340Z,83.27
2022-11-13T06:58:40.139Z,77.67
2022-11-13T07:01:15.768Z,93.63
2022-11-13T07:03:43.366Z,98.73
2022-11-13T07:06:17.725Z,77.30
2022-11-13T07:08:46.294Z,88.80
2022-11-13T07:11:18.950Z,85.60
2022-11-13T07:13:46.504Z,78.07
2022-11-13T07:16:17.748Z,85.67
2022-11-13T07:18:51.721Z,125.70
2022-11-13T07:21:20.360Z,86.70
2022-11-13T07:23:49.729Z,84.20
2022-11-13T07:26:17.174Z,86.33
2022-11-13T07:28:44.816Z,77.63
2022-11-13T07:31:14.280Z,92.20
2022-11-13T07:33:41.959Z,89.67
2022-11-13T07:36:10.325Z,192.10
2022-11-13T07:38:38.189Z,102.37
2022-11-13T07:41:05.641Z,123.77
2022-11-13T07:43:33.215Z,111.37
2022-11-13T07:46:01.532Z,120.07
2022-11-13T07:48:30.158Z,115.43
2022-11-13T07:51:02.364Z,102.80
2022-11-13T07:53:29.860Z,113.40
2022-11-13T07:56:00.686Z,101.37
2022-11-13T07:58:28.294Z,104.40
2022-11-13T08:00:56.014Z,107.70
2022-11-13T08:03:23.530Z,108.33
2022-11-13T08:05:51.006Z,113.77
2022-11-13T08:08:18.370Z,101.43
2022-11-13T08:10:45.707Z,112.27
2022-11-13T08:13:13.054Z,117.13
2022-11-13T08:15:40.812Z,105.53
2022-11-13T08:18:08.284Z,101.50
2022-11-13T08:20:35.736Z,111.00
2022-11-13T08:23:05.037Z,114.67
2022-11-13T08:25:33.927Z,118.53
2022-11-13T08:28:01.314Z,113.17
2022-11-13T08:30:29.903Z,121.57
2022-11-13T08:32:57.418Z,135.60
2022-11-13T08:35:29.010Z,135.50
2022-11-13T08:38:05.675Z,111.63
2022-11-13T08:40:33.325Z,124.07
2022-11-13T08:43:04.957Z,122.47
2022-11-13T08:45:33.056Z,114.27
2022-11-13T08:48:04.667Z,113.67
2022-11-13T08:50:33.921Z,118.17
2022-11-13T08:53:02.178Z,123.83
2022-11-13T08:55:29.997Z,110.60
2022-11-13T08:58:01.807Z,108.40
2022-11-13T09:00:31.010Z,118.37
2022-11-13T09:02:59.734Z,117.63
2022-11-13T09:05:27.909Z,116.73
2022-11-13T09:08:00.674Z,112.07
2022-11-13T09:10:29.131Z,117.60
2022-11-13T09:12:58.575Z,114.97
2022-11-13T09:15:26.545Z,111.77
2022-11-13T09:17:58.281Z,117.13
2022-11-13T09:20:26.477Z,102.77
2022-11-13T09:23:05.742Z,107.23
2022-11-13T09:25:37.908Z,106.00
2022-11-13T09:28:08.749Z,119.40
2022-11-13T09:30:40.279Z,97.20
2022-11-13T09:33:08.068Z,89.37
2022-11-13T09:35:36.943Z,86.07
2022-11-13T09:38:11.483Z,91.93
2022-11-13T09:41:20.592Z,97.77
2022-11-13T09:43:58.196Z,86.40
2022-11-13T09:46:46.825Z,89.03
2022-11-13T09:49:18.780Z,87.73
2022-11-13T09:51:54.622Z,84.57
2022-11-13T09:54:22.404Z,91.90
2022-11-13T09:57:25.739Z,91.80
2022-11-13T10:00:12.434Z,87.77
2022-11-13T10:03:04.212Z,87.20
2022-11-13T10:05:46.612Z,93.73
2022-11-13T10:08:26.568Z,86.67
2022-11-13T10:11:11.086Z,99.77
2022-11-13T10:14:19.768Z,83.27
2022-11-13T10:17:03.617Z,86.87
2022-11-13T10:19:40.909Z,167.70
2022-11-13T10:22:34.165Z,92.50
2022-11-13T10:25:18.765Z,106.93
2022-11-13T10:28:15.909Z,86.80
2022-11-13T10:30:49.723Z,99.97
2022-11-13T10:33:21.743Z,91.30
2022-11-13T10:35:55.801Z,94.50
2022-11-13T10:38:44.884Z,91.67
2022-11-13T10:41:18.483Z,86.60
2022-11-13T10:44:35.708Z,99.13
2022-11-13T10:47:42.808Z,112.80
2022-11-13T10:50:21.926Z,103.73
2022-11-13T10:52:51.843Z,93.13
2022-11-13T10:55:26.279Z,94.03
2022-11-13T10:58:03.626Z,105.07
2022-11-13T11:00:36.848Z,96.23
2022-11-13T11:03:04.306Z,85.10
2022-11-13T11:05:31.656Z,92.37
2022-11-13T11:08:01.213Z,86.50
2022-11-13T11:10:34.997Z,89.80
2022-11-13T11:13:20.858Z,93.40
2022-11-13T11:15:59.771Z,104.10
2022-11-13T11:18:37.071Z,87.70
2022-11-13T11:21:16.222Z,107.87
2022-11-13T11:24:19.862Z,99.67
2022-11-13T11:27:06.707Z,99.13
2022-11-13T11:29:55.141Z,108.90
2022-11-13T11:32:41.276Z,95.07
2022-11-13T11:35:37.584Z,122.43
2022-11-13T11:38:26.867Z,96.83
2022-11-13T11:41:17.154Z,90.93
2022-11-13T11:43:49.913Z,112.03
2022-11-13T11:46:26.211Z,109.60
2022-11-13T11:49:01.612Z,96.53
2022-11-13T11:52:02.620Z,91.43
2022-11-13T11:54:49.758Z,92.57
2022-11-13T11:57:49.276Z,95.33
2022-11-13T12:00:20.141Z,89.03
2022-11-13T12:03:01.714Z,109.07
2022-11-13T12:05:31.637Z,101.47
2022-11-13T12:08:07.899Z,96.23
2022-11-13T12:10:51.509Z,98.03
2022-11-13T12:13:34.326Z,88.90
2022-11-13T12:16:11.434Z,94.10
2022-11-13T12:19:07.869Z,89.83
2022-11-13T12:22:04.413Z,93.83
2022-11-13T12:24:50.597Z,92.23
2022-11-13T12:27:44.263Z,93.60
2022-11-13T12:30:18.070Z,111.70
2022-11-13T12:32:45.353Z,93.60
2022-11-13T12:35:24.767Z,96.97
2022-11-13T12:38:13.488Z,103.37
2022-11-13T12:40:51.882Z,100.57
2022-11-13T12:43:34.024Z,102.37
2022-11-13T12:46:09.683Z,102.03
2022-11-13T12:48:42.876Z,102.63
2022-11-13T12:51:13.407Z,99.00
2022-11-13T12:53:48.973Z,107.13
2022-11-13T12:56:24.891Z,103.20
2022-11-13T12:59:31.894Z,106.73
2022-11-13T13:02:38.184Z,106.00
2022-11-13T13:05:27.577Z,104.53
2022-11-13T13:08:26.108Z,101.77
2022-11-13T13:11:16.538Z,113.43
2022-11-13T13:14:13.017Z,107.00
2022-11-13T13:16:40.431Z,104.57
2022-11-13T13:19:22.872Z,102.43
2022-11-13T13:21:51.987Z,99.77
2022-11-13T13:24:31.893Z,102.87
2022-11-13T13:27:01.364Z,113.40
2022-11-13T13:29:31.023Z,99.80
2022-11-13T13:32:20.191Z,103.37
2022-11-13T13:35:06.447Z,100.77
2022-11-13T13:37:53.388Z,94.13
2022-11-13T13:40:21.223Z,97.00
2022-11-13T13:43:15.819Z,93.43
2022-11-13T13:46:14.990Z,90.40
2022-11-13T13:48:45.371Z,92.60
2022-11-13T13:51:38.930Z,90.83
2022-11-13T13:54:08.391Z,88.13
2022-11-13T13:56:41.920Z,87.03
2022-11-13T13:59:31.292Z,88.17
2022-11-13T14:02:02.121Z,89.20
2022-11-13T14:04:36.772Z,88.77
2022-11-13T14:07:04.335Z,94.10
2022-11-13T14:09:32.209Z,89.80
2022-11-13T14:12:07.872Z,89.00
2022-11-13T14:14:44.456Z,89.73
2022-11-13T14:17:13.418Z,98.73
2022-11-13T14:19:41.493Z,96.33
2022-11-13T14:22:13.882Z,99.87
2022-11-13T14:24:59.884Z,103.77
2022-11-13T14:27:32.076Z,100.77
2022-11-13T14:30:01.776Z,105.23
2022-11-13T14:32:34.900Z,107.10
2022-11-13T14:35:03.777Z,107.13
2022-11-13T14:37:40.327Z,99.90
2022-11-13T14:40:22.547Z,106.27
2022-11-13T14:43:00.665Z,103.53
2022-11-13T14:45:31.334Z,103.23
2022-11-13T14:48:19.011Z,107.40
2022-11-13T14:50:58.163Z,102.10
2022-11-13T14:53:30.103Z,107.00
2022-11-13T14:56:10.319Z,113.00
2022-11-13T14:58:50.078Z,106.33
2022-11-13T15:01:23.118Z,108.30
2022-11-13T15:03:54.735Z,102.50
2022-11-13T15:06:25.087Z,109.67
2022-11-13T15:08:56.734Z,111.57
2022-11-13T15:11:27.050Z,107.90
2022-11-13T15:13:57.828Z,113.10
2022-11-13T15:16:29.739Z,118.53
2022-11-13T15:19:35.296Z,114.83
2022-11-13T15:22:26.150Z,117.93
2022-11-13T15:24:50.310Z,104.13
2022-11-13T15:27:18.897Z,121.17
2022-11-13T15:29:46.841Z,119.00
2022-11-13T15:32:15.554Z,118.90
2022-11-13T15:34:44.117Z,112.67
2022-11-13T15:37:18.254Z,124.27
2022-11-13T15:39:46.447Z,223.47
2022-11-13T15:42:34.583Z,135.03
2022-11-13T15:45:04.284Z,118.00
2022-11-13T15:47:40.079Z,121.23
2022-11-13T15:50:16.026Z,119.73
2022-11-13T15:52:48.012Z,125.37
2022-11-13T15:55:32.406Z,141.67
2022-11-13T15:58:06.016Z,134.90
2022-11-13T16:00:34.315Z,154.83
2022-11-13T16:03:04.773Z,148.37
2022-11-13T16:05:33.566Z,153.17
2022-11-13T16:08:10.672Z,148.63
2022-11-13T16:10:38.144Z,122.00
2022-11-13T16:13:05.868Z,104.93
2022-11-13T16:15:39.376Z,83.13
2022-11-13T16:18:26.276Z,82.37
2022-11-13T16:20:55.492Z,140.67
2022-11-13T16:23:26.961Z,86.33
2022-11-13T16:25:55.082Z,311.10
2022-11-13T16:28:26.138Z,142.43
2022-11-13T16:30:53.594Z,128.40
2022-11-13T16:33:24.919Z,123.30
2022-11-13T16:35:52.497Z,200.27
2022-11-13T16:38:21.336Z,151.63
2022-11-13T16:40:49.372Z,249.40
2022-11-13T16:43:17.729Z,452.13
2022-11-13T16:45:45.496Z,220.00
2022-11-13T16:48:16.667Z,182.23
2022-11-13T16:50:47.110Z,216.07
2022-11-13T16:53:14.669Z,145.10
2022-11-13T16:55:42.294Z,145.57
2022-11-13T16:58:18.661Z,156.57
2022-11-13T17:00:46.132Z,125.10
2022-11-13T17:03:13.569Z,129.20
2022-11-13T17:05:47.178Z,219.60
2022-11-13T17:08:15.761Z,129.87
2022-11-13T17:10:43.400Z,132.27
2022-11-13T17:13:13.231Z,144.03
2022-11-13T17:15:42.053Z,325.53
2022-11-13T17:18:13.561Z,237.27
2022-11-13T17:20:40.912Z,202.17
2022-11-13T17:23:11.996Z,370.33
2022-11-13T17:25:39.328Z,496.83
2022-11-13T17:28:06.603Z,391.40
2022-11-13T17:30:35.207Z,480.03
2022-11-13T17:33:03.942Z,508.50
2022-11-13T17:35:31.349Z,404.60
2022-11-13T17:37:58.927Z,481.50
2022-11-13T17:40:26.668Z,479.63
2022-11-13T17:42:53.993Z,491.43
2022-11-13T17:45:21.435Z,392.43
2022-11-13T17:47:50.332Z,327.57
2022-11-13T17:50:17.705Z,367.73
2022-11-13T17:52:45.103Z,350.10
2022-11-13T17:55:14.476Z,459.50
2022-11-13T17:57:41.977Z,221.93
2022-11-13T18:00:10.607Z,290.03
2022-11-13T18:02:38.004Z,276.83
2022-11-13T18:05:05.937Z,319.63
2022-11-13T18:07:33.555Z,293.53
2022-11-13T18:10:00.998Z,250.60
2022-11-13T18:12:29.365Z,216.23
2022-11-13T18:14:57.385Z,284.03
2022-11-13T18:17:25.070Z,184.10
2022-11-13T18:19:55.987Z,419.47
2022-11-13T18:22:27.780Z,624.87
2022-11-13T18:24:55.492Z,267.97
2022-11-13T18:27:26.357Z,311.47
2022-11-13T18:29:53.908Z,202.70
2022-11-13T18:32:24.411Z,290.37
2022-11-13T18:34:52.533Z,356.47
2022-11-13T18:37:21.389Z,448.07
2022-11-13T18:39:49.181Z,309.97
2022-11-13T18:42:17.306Z,358.13
2022-11-13T18:44:44.755Z,319.73
2022-11-13T18:47:16.181Z,529.53
2022-11-13T18:49:47.276Z,410.30
2022-11-13T18:52:14.715Z,267.83
2022-11-13T18:54:42.384Z,269.57
2022-11-13T18:57:10.148Z,329.83
2022-11-13T18:59:40.456Z,247.67
2022-11-13T19:02:11.014Z,572.93
2022-11-13T19:04:44.415Z,496.23
2022-11-13T19:07:12.763Z,413.53
2022-11-13T19:09:48.336Z,444.67
2022-11-13T19:12:21.172Z,320.83
2022-11-13T19:14:48.466Z,427.07
2022-11-13T19:17:19.410Z,456.57
2022-11-13T19:19:47.774Z,641.67
2022-11-13T19:22:15.343Z,395.70
2022-11-13T19:24:42.742Z,287.27
2022-11-13T19:27:10.321Z,427.87
2022-11-13T19:29:38.025Z,363.90
2022-11-13T19:32:05.742Z,791.37
2022-11-13T19:34:36.269Z,395.47
2022-11-13T19:37:04.136Z,647.60
2022-11-13T19:39:31.755Z,460.80
2022-11-13T19:41:59.235Z,306.47
2022-11-13T19:44:27.350Z,294.33
2022-11-13T19:46:55.800Z,494.50
2022-11-13T19:49:23.062Z,445.87
2022-11-13T19:51:52.755Z,415.60
2022-11-13T19:54:20.143Z,255.27
2022-11-13T19:56:47.490Z,198.67
2022-11-13T19:59:14.854Z,220.40
2022-11-13T20:01:42.944Z,203.83
2022-11-13T20:04:12.224Z,248.87
2022-11-13T20:06:40.223Z,266.77
2022-11-13T20:09:07.829Z,363.23
2022-11-13T20:11:38.163Z,242.60
2022-11-13T20:14:08.480Z,233.67
2022-11-13T20:16:36.862Z,150.77
2022-11-13T20:19:06.555Z,475.67
2022-11-13T20:21:33.907Z,470.37
2022-11-13T20:24:01.981Z,293.67
2022-11-13T20:26:31.410Z,315.33
2022-11-13T20:28:59.090Z,157.63
2022-11-13T20:31:30.810Z,232.67
2022-11-13T20:34:01.434Z,358.43
2022-11-13T20:36:29.000Z,622.03
2022-11-13T20:38:57.624Z,450.37
2022-11-13T20:41:26.307Z,205.37
2022-11-13T20:43:56.525Z,203.30
2022-11-13T20:46:24.015Z,183.40
2022-11-13T20:48:51.489Z,139.40
2022-11-13T20:51:27.500Z,202.00
2022-11-13T20:53:55.876Z,279.40
2022-11-13T20:56:25.207Z,162.90
2022-11-13T20:58:52.810Z,139.97
2022-11-13T21:01:25.538Z,139.47
2022-11-13T21:03:53.738Z,319.13
2022-11-13T21:06:23.755Z,157.27
2022-11-13T21:08:54.021Z,146.93
2022-11-13T21:11:23.102Z,164.00
2022-11-13T21:13:51.507Z,171.93
2022-11-13T21:16:19.307Z,115.53
2022-11-13T21:18:47.181Z,116.07
2022-11-13T21:21:19.150Z,103.73
2022-11-13T21:23:48.223Z,114.33
2022-11-13T21:26:16.681Z,115.43
2022-11-13T21:28:44.693Z,106.00
2022-11-13T21:31:16.276Z,96.73
2022-11-13T21:33:45.289Z,115.43
2022-11-13T21:36:23.388Z,224.27
2022-11-13T21:38:53.239Z,222.60
2022-11-13T21:41:22.680Z,141.33
2022-11-13T21:44:05.154Z,126.10
2022-11-13T21:46:42.259Z,99.17
2022-11-13T21:49:11.534Z,86.10
2022-11-13T21:51:40.846Z,82.30
2022-11-13T21:54:08.944Z,122.90
2022-11-13T21:56:38.494Z,111.57
2022-11-13T21:59:07.818Z,91.50
2022-11-13T22:01:38.557Z,98.37
2022-11-13T22:04:07.622Z,98.57
2022-11-13T22:06:41.940Z,96.47
2022-11-13T22:09:19.472Z,88.03
2022-11-13T22:11:46.821Z,85.00
2022-11-13T22:14:14.297Z,79.00
2022-11-13T22:16:44.095Z,79.53
2022-11-13T22:19:17.146Z,80.63
2022-11-13T22:21:45.280Z,75.83
2022-11-13T22:24:13.785Z,112.63
2022-11-13T22:26:45.733Z,113.80
2022-11-13T22:29:14.016Z,116.87
2022-11-13T22:31:41.370Z,165.07
2022-11-13T22:34:08.741Z,146.60
2022-11-13T22:36:37.365Z,171.27
2022-11-13T22:39:05.408Z,160.10
2022-11-13T22:41:34.900Z,141.03
2022-11-13T22:44:05.479Z,145.57
2022-11-13T22:46:34.132Z,158.80
2022-11-13T22:49:02.592Z,139.53
2022-11-13T22:51:32.499Z,163.23
2022-11-13T22:54:02.419Z,157.33
2022-11-13T22:56:32.246Z,161.67
2022-11-13T22:59:02.046Z,165.27
2022-11-13T23:01:32.187Z,154.97
2022-11-13T23:04:02.441Z,181.10
2022-11-13T23:06:31.964Z,215.83
2022-11-13T23:09:01.311Z,191.13
2022-11-13T23:11:40.616Z,275.77
2022-11-13T23:14:12.515Z,319.87
2022-11-13T23:16:40.230Z,191.23
2022-11-13T23:19:07.942Z,447.20
2022-11-13T23:21:35.380Z,251.57
2022-11-13T23:24:03.377Z,198.60
2022-11-13T23:26:31.117Z,630.87
2022-11-13T23:28:58.752Z,215.83
2022-11-13T23:31:26.037Z,236.23
2022-11-13T23:33:53.279Z,160.63
2022-11-13T23:36:20.632Z,147.30
2022-11-13T23:38:48.678Z,167.83
2022-11-13T23:41:15.972Z,163.70
2022-11-13T23:46:30.651Z,143.33
2022-11-13T23:48:58.227Z,134.07
2022-11-13T23:51:25.668Z,118.57
2022-11-13T23:53:53.343Z,132.33
2022-11-13T23:56:20.993Z,111.43
2022-11-13T23:58:48.259Z,95.33
